Fort Lauderdale Hollywood International Airport
KFLL : rendu visible

Aérodrome :











RETROUVEZ-NOUS SUR...

 
LOGIN :

S'inscrire | Disclaimer

   EN    FR    IT 

 









Légende :    VFR   VFR Marginal   IFR   IFR Intensif   IFR Très Intensif
Visi : 
Plafond : 
>= 8 km
>= 3000ft
5 à 8 km
1000 à 3000 ft
1500m à 5 km
500 à 1000 ft
800 à 1500m
200 à 500 ft
< 800m
< 200 ft
Symboles :   Orages  Brouillard  Fortes neiges  Fortes précipitations  Vent > 20 kt






- Altitude de l'aérodrome : 9 ft
- Code IATA : FLL


KFLL - Fort Lauderdale Hollywood International

DERNIER METAR :
  • 171153Z 32008KT 10SM OVC012 14/12 A2990 RMK AO2 SLP123 T01390117 10156 20139 53016 $

METARs EXPIRÉS :
  • 171053Z 31009KT 10SM OVC013 14/12 A2987 RMK AO2 SLP115 T01390117 $
  • 170953Z 32009G16KT 10SM OVC011 14/12 A2985 RMK AO2 SLP109 T01390117 $

TAF KFLL
Valide du 17 à 12h jusqu'au 18 à 18h UTC


171121Z 1712/1818 31010KT P6SM BKN010
FM171500 32010KT P6SM FEW035 SCT050
FM180000 VRB05KT P6SM FEW050
FM181500 28008KT P6SM SCT030 SCT050



MET'MAP, la Météo Aéronautique d'un coup d'oeil ! - Copyright ORBIFLY Décembre 2007 - Disclaimer

ORBIFLY MET'MAP TEAM :

Programmation & Développement : Alexandra Zaïnal
Conception & Développement : Baudouin d'Aumeries
Co-Programmation & Développement : Marc-Olivier Méhu
Soutien technique & logistique : Manuel Goepfert

Contact : metmap@orbifly.com




SOURCES & CREDITS :

   NOAA       Earth
Advisory